Time;durP1;ratioP1;P1;durP2;ratioP2;P2;SDS_P1;SDS_P2;PMS_P1;PMS_P2;Temp;Humidity;BMP_temperature;BMP_pressure;BME280_temperature;BME280_humidity;BME280_pressure;Samples;Min_cycle;Max_cycle;Signal;HPM_P1;HPM_P2
2022/02/05 00:02:40;;;;;;;0.57;0.53;;;;;;;;;;4946085;28;20360;-67
2022/02/05 00:05:11;;;;;;;1.57;0.27;;;;;;;;;;4943916;28;20235;-66
2022/02/05 00:07:43;;;;;;;0.10;0.00;;;;;;;;;;4944536;28;20199;-67
2022/02/05 00:10:33;;;;;;;7.83;1.17;;;;;;;;;;4935016;28;20210;-65
2022/02/05 00:13:22;;;;;;;0.20;0.20;;;;;;;;;;4938679;29;20223;-67
2022/02/05 00:16:05;;;;;;;0.63;0.40;;;;;;;;;;4941018;28;20856;-66
2022/02/05 00:40:50;;;;;;;0.00;0.00;;;;;;;;;;4928462;28;20205;-67
2022/02/05 00:43:18;;;;;;;4.20;0.67;;;;;;;;;;4931958;28;20339;-68
2022/02/05 00:45:50;;;;;;;0.10;0.10;;;;;;;;;;4932826;28;20207;-70
2022/02/05 00:48:18;;;;;;;8.50;1.40;;;;;;;;;;4924763;28;21129;-67
2022/02/05 00:50:50;;;;;;;0.00;0.00;;;;;;;;;;4924506;28;20559;-70
2022/02/05 00:53:28;;;;;;;0.13;0.07;;;;;;;;;;4923747;28;20588;-70
2022/02/05 00:56:04;;;;;;;7.63;1.03;;;;;;;;;;4925543;28;20222;-66
2022/02/05 00:58:31;;;;;;;0.03;0.03;;;;;;;;;;4924855;28;20207;-66
2022/02/05 01:00:58;;;;;;;2.97;0.60;;;;;;;;;;4926038;28;20278;-67
2022/02/05 01:03:26;;;;;;;0.40;0.40;;;;;;;;;;4924390;28;20199;-65
2022/02/05 01:05:53;;;;;;;0.00;0.00;;;;;;;;;;4927354;28;20207;-66
2022/02/05 01:08:24;;;;;;;0.10;0.10;;;;;;;;;;4928981;28;20213;-66
2022/02/05 01:10:52;;;;;;;0.10;0.00;;;;;;;;;;4941492;28;20203;-66
2022/02/05 01:13:19;;;;;;;0.00;0.00;;;;;;;;;;4940330;28;20877;-66
2022/02/05 01:15:54;;;;;;;0.07;0.07;;;;;;;;;;4949431;28;20198;-67
2022/02/05 01:18:24;;;;;;;1.73;1.60;;;;;;;;;;4938856;28;20213;-67
2022/02/05 01:21:07;;;;;;;0.13;0.13;;;;;;;;;;4940001;28;20239;-65
2022/02/05 01:23:42;;;;;;;0.13;0.13;;;;;;;;;;4944823;28;20210;-67
2022/02/05 01:26:16;;;;;;;0.10;0.10;;;;;;;;;;4937071;28;20202;-66
2022/02/05 01:28:48;;;;;;;0.30;0.30;;;;;;;;;;4936011;28;20547;-68
2022/02/05 01:31:16;;;;;;;0.20;0.20;;;;;;;;;;4944325;28;21662;-66
2022/02/05 01:33:54;;;;;;;0.10;0.10;;;;;;;;;;4930566;28;20227;-63
2022/02/05 01:50:28;;;;;;;0.87;0.20;;;;;;;;;;4944740;28;20214;-64
2022/02/05 01:53:11;;;;;;;0.00;0.00;;;;;;;;;;4943555;28;20227;-68
2022/02/05 01:56:13;;;;;;;0.03;0.03;;;;;;;;;;4923457;28;20210;-69
2022/02/05 01:58:55;;;;;;;0.37;0.30;;;;;;;;;;4942512;28;20199;-64
2022/02/05 02:10:10;;;;;;;1.03;0.43;;;;;;;;;;4927228;28;20305;-66
2022/02/05 02:12:44;;;;;;;0.00;0.00;;;;;;;;;;4926549;28;20241;-67
2022/02/05 02:15:17;;;;;;;0.00;0.00;;;;;;;;;;4926002;28;20199;-65
2022/02/05 02:18:12;;;;;;;0.00;0.00;;;;;;;;;;4931411;28;20207;-70
2022/02/05 02:21:02;;;;;;;0.00;0.00;;;;;;;;;;4925211;28;20691;-69
2022/02/05 02:23:45;;;;;;;0.53;0.30;;;;;;;;;;4930606;28;21694;-64
2022/02/05 02:26:20;;;;;;;0.30;0.27;;;;;;;;;;4929917;28;21619;-65
2022/02/05 02:28:53;;;;;;;0.13;0.13;;;;;;;;;;4926553;28;20203;-66
2022/02/05 02:31:28;;;;;;;0.00;0.00;;;;;;;;;;4926692;28;20199;-67
2022/02/05 02:33:59;;;;;;;1.73;0.43;;;;;;;;;;4935484;28;20913;-65
2022/02/05 02:36:33;;;;;;;0.00;0.00;;;;;;;;;;4926263;28;20291;-66
2022/02/05 02:39:07;;;;;;;1.90;0.33;;;;;;;;;;4927066;28;20203;-68
2022/02/05 02:41:44;;;;;;;0.53;0.40;;;;;;;;;;4938976;28;20206;-67
2022/02/05 02:44:11;;;;;;;0.00;0.00;;;;;;;;;;4947927;28;20281;-65
2022/02/05 02:46:39;;;;;;;0.00;0.00;;;;;;;;;;4947514;28;20204;-66
2022/02/05 02:49:09;;;;;;;0.10;0.10;;;;;;;;;;4949811;28;20221;-65
2022/02/05 02:57:20;;;;;;;0.00;0.00;;;;;;;;;;4925592;28;20875;-68
2022/02/05 02:59:53;;;;;;;0.27;0.10;;;;;;;;;;4929270;28;20206;-65
2022/02/05 03:02:23;;;;;;;0.03;0.03;;;;;;;;;;4927265;28;20207;-66
2022/02/05 03:04:53;;;;;;;0.50;0.50;;;;;;;;;;4925643;28;20203;-68
2022/02/05 03:07:21;;;;;;;0.00;0.00;;;;;;;;;;4926013;28;20203;-66
2022/02/05 03:09:50;;;;;;;0.20;0.20;;;;;;;;;;4924653;28;20911;-67
2022/02/05 03:12:17;;;;;;;0.17;0.17;;;;;;;;;;4937541;28;20206;-67
2022/02/05 03:14:45;;;;;;;0.00;0.00;;;;;;;;;;4943035;28;20195;-68
2022/02/05 03:17:16;;;;;;;0.00;0.00;;;;;;;;;;4934727;28;20214;-70
2022/02/05 03:19:44;;;;;;;0.00;0.00;;;;;;;;;;4927336;28;20231;-69
2022/02/05 03:22:12;;;;;;;0.10;0.10;;;;;;;;;;4924950;28;20322;-68
2022/02/05 03:24:39;;;;;;;0.00;0.00;;;;;;;;;;4932389;28;20336;-63
2022/02/05 03:27:10;;;;;;;0.00;0.00;;;;;;;;;;4944863;28;20218;-67
2022/02/05 03:29:38;;;;;;;0.00;0.00;;;;;;;;;;4934259;28;20215;-65
2022/02/05 03:32:06;;;;;;;0.00;0.00;;;;;;;;;;4925976;28;20203;-68
2022/02/05 03:34:33;;;;;;;0.23;0.23;;;;;;;;;;4926586;28;20214;-64
2022/02/05 03:37:01;;;;;;;2.10;0.77;;;;;;;;;;4931536;29;20219;-65
2022/02/05 03:39:29;;;;;;;0.20;0.20;;;;;;;;;;4925535;28;20283;-68
2022/02/05 03:41:56;;;;;;;0.20;0.20;;;;;;;;;;4932242;28;20558;-67
2022/02/05 03:44:25;;;;;;;0.00;0.00;;;;;;;;;;4933559;28;20215;-64
2022/02/05 03:46:54;;;;;;;0.00;0.00;;;;;;;;;;4926842;28;20207;-64
2022/02/05 03:49:22;;;;;;;0.00;0.00;;;;;;;;;;4933964;28;20246;-64
2022/02/05 03:51:51;;;;;;;0.00;0.00;;;;;;;;;;4945169;28;20294;-68
2022/02/05 03:54:19;;;;;;;0.37;0.23;;;;;;;;;;4944392;28;20589;-67
2022/02/05 03:56:47;;;;;;;0.00;0.00;;;;;;;;;;4943077;28;20665;-65
2022/02/05 03:59:15;;;;;;;0.00;0.00;;;;;;;;;;4944924;28;20587;-64
2022/02/05 04:01:44;;;;;;;0.10;0.10;;;;;;;;;;4944904;29;20207;-65
2022/02/05 04:04:11;;;;;;;0.20;0.20;;;;;;;;;;4946422;28;20215;-67
2022/02/05 04:06:38;;;;;;;0.20;0.00;;;;;;;;;;4945118;29;20199;-64
2022/02/05 04:09:10;;;;;;;0.10;0.10;;;;;;;;;;4946144;28;20578;-63
2022/02/05 04:11:55;;;;;;;0.03;0.03;;;;;;;;;;4946296;28;20289;-64
2022/02/05 04:17:09;;;;;;;0.00;0.00;;;;;;;;;;4944269;28;20210;-66
2022/02/05 04:19:36;;;;;;;4.10;0.30;;;;;;;;;;4944751;28;20203;-63
2022/02/05 04:22:04;;;;;;;0.13;0.07;;;;;;;;;;4944548;28;20210;-65
2022/02/05 04:24:31;;;;;;;0.20;0.20;;;;;;;;;;4943625;28;20226;-63
2022/02/05 04:26:59;;;;;;;1.50;1.33;;;;;;;;;;4946109;28;20270;-65
2022/02/05 09:02:19;;;;;;;0.10;0.10;;;;;;;;;;5083894;27;20977;-69
2022/02/05 09:04:54;;;;;;;1.70;0.63;;;;;;;;;;5067644;28;20230;-66
2022/02/05 09:07:21;;;;;;;0.20;0.20;;;;;;;;;;5062944;28;20195;-66
2022/02/05 09:10:02;;;;;;;1.00;0.37;;;;;;;;;;5060331;28;20206;-68
2022/02/05 09:12:55;;;;;;;0.33;0.33;;;;;;;;;;5060243;28;20681;-67
2022/02/05 09:15:21;;;;;;;1.13;0.40;;;;;;;;;;5058943;28;20659;-66
2022/02/05 09:17:50;;;;;;;0.33;0.33;;;;;;;;;;5060765;28;20195;-67
2022/02/05 09:20:17;;;;;;;0.60;0.60;;;;;;;;;;5063144;28;20191;-67
2022/02/05 09:22:45;;;;;;;0.10;0.10;;;;;;;;;;5070147;28;20648;-68
2022/02/05 09:25:15;;;;;;;2.73;0.70;;;;;;;;;;5064414;28;20210;-74
2022/02/05 09:27:45;;;;;;;5.60;1.50;;;;;;;;;;5067747;28;20200;-68
2022/02/05 09:30:15;;;;;;;3.40;0.83;;;;;;;;;;5055914;28;20257;-68
2022/02/05 09:32:43;;;;;;;0.57;0.43;;;;;;;;;;5068465;28;20199;-66
2022/02/05 09:35:12;;;;;;;1.90;0.60;;;;;;;;;;5065344;28;20565;-66
2022/02/05 09:37:40;;;;;;;0.17;0.17;;;;;;;;;;5066969;28;20210;-67
2022/02/05 09:40:07;;;;;;;0.27;0.27;;;;;;;;;;5065402;28;20195;-66
2022/02/05 09:42:35;;;;;;;4.70;1.00;;;;;;;;;;5067971;28;20203;-66
2022/02/05 09:45:02;;;;;;;0.20;0.10;;;;;;;;;;5064256;28;20209;-66
2022/02/05 09:47:30;;;;;;;0.53;0.37;;;;;;;;;;5067577;28;20248;-66
2022/02/05 09:49:57;;;;;;;0.63;0.40;;;;;;;;;;5066680;28;20195;-66
2022/02/05 09:52:27;;;;;;;0.20;0.20;;;;;;;;;;5067073;28;20218;-65
2022/02/05 09:54:55;;;;;;;17.17;3.20;;;;;;;;;;5066855;28;20210;-66
2022/02/05 09:57:22;;;;;;;0.70;0.37;;;;;;;;;;5065827;28;20199;-65
2022/02/05 09:59:55;;;;;;;0.73;0.20;;;;;;;;;;5065844;28;20199;-65
2022/02/05 10:02:26;;;;;;;0.27;0.07;;;;;;;;;;5066447;28;20195;-65
2022/02/05 10:04:55;;;;;;;1.90;1.03;;;;;;;;;;5064582;28;20229;-70
2022/02/05 10:07:23;;;;;;;0.00;0.00;;;;;;;;;;5065454;28;20235;-66
2022/02/05 10:10:01;;;;;;;1.17;0.40;;;;;;;;;;5064025;28;20200;-65
2022/02/05 10:12:29;;;;;;;1.27;1.17;;;;;;;;;;5057746;28;20218;-66
2022/02/05 10:14:57;;;;;;;0.00;0.00;;;;;;;;;;5051828;28;20283;-66
2022/02/05 10:17:38;;;;;;;0.53;0.30;;;;;;;;;;5053819;28;20703;-66
2022/02/05 10:20:06;;;;;;;0.83;0.20;;;;;;;;;;5053333;28;20209;-66
2022/02/05 10:22:37;;;;;;;0.30;0.20;;;;;;;;;;5053521;28;20257;-66
2022/02/05 10:25:16;;;;;;;0.00;0.00;;;;;;;;;;5053328;28;20206;-66
2022/02/05 10:27:45;;;;;;;0.50;0.50;;;;;;;;;;5034161;28;20231;-66
2022/02/05 10:30:14;;;;;;;0.35;0.35;;;;;;;;;;5034092;28;20203;-66
2022/02/05 10:32:44;;;;;;;0.10;0.10;;;;;;;;;;5049387;28;20203;-66
2022/02/05 10:35:23;;;;;;;0.57;0.27;;;;;;;;;;5051513;28;20196;-70
2022/02/05 10:37:56;;;;;;;31.10;2.87;;;;;;;;;;5045047;28;20235;-66
2022/02/05 10:40:40;;;;;;;0.53;0.40;;;;;;;;;;5053365;28;20196;-66
2022/02/05 10:43:08;;;;;;;0.20;0.20;;;;;;;;;;5053578;28;20739;-65
2022/02/05 10:45:43;;;;;;;5.43;1.50;;;;;;;;;;5054204;28;20210;-68
2022/02/05 10:48:11;;;;;;;0.00;0.00;;;;;;;;;;5053838;28;20196;-64
2022/02/05 10:50:38;;;;;;;0.47;0.30;;;;;;;;;;5051209;28;20221;-67
2022/02/05 10:53:10;;;;;;;0.00;0.00;;;;;;;;;;5052551;28;20203;-71
2022/02/05 10:55:47;;;;;;;0.30;0.30;;;;;;;;;;5052907;28;20278;-66
2022/02/05 10:58:35;;;;;;;0.30;0.30;;;;;;;;;;5052026;28;20200;-66
2022/02/05 11:06:58;;;;;;;8.17;2.40;;;;;;;;;;5051239;28;20628;-66
2022/02/05 11:09:25;;;;;;;1.30;0.93;;;;;;;;;;5052194;28;20196;-66
2022/02/05 11:20:07;;;;;;;1.83;1.43;;;;;;;;;;5031931;28;20349;-67
2022/02/05 11:22:35;;;;;;;2.47;0.83;;;;;;;;;;5051692;28;20203;-66
2022/02/05 11:25:04;;;;;;;0.07;0.07;;;;;;;;;;5047773;28;20199;-66
2022/02/05 11:27:33;;;;;;;0.77;0.50;;;;;;;;;;5043037;28;20212;-67
2022/02/05 11:30:31;;;;;;;0.00;0.00;;;;;;;;;;5050351;28;20291;-66
2022/02/05 11:33:03;;;;;;;4.03;1.37;;;;;;;;;;5048479;28;20282;-67
2022/02/05 11:35:33;;;;;;;0.20;0.20;;;;;;;;;;5052151;28;20195;-66
2022/02/05 11:38:02;;;;;;;0.67;0.37;;;;;;;;;;5050838;28;20214;-66
2022/02/05 11:40:46;;;;;;;0.83;0.20;;;;;;;;;;5051842;28;20563;-66
2022/02/05 11:43:17;;;;;;;0.00;0.00;;;;;;;;;;5048907;28;20656;-66
2022/02/05 11:45:44;;;;;;;0.10;0.10;;;;;;;;;;5028130;28;20199;-67
2022/02/05 11:48:30;;;;;;;0.73;0.53;;;;;;;;;;5029306;28;20203;-69
2022/02/05 11:51:10;;;;;;;1.53;0.87;;;;;;;;;;5035737;28;20237;-67
2022/02/05 11:53:52;;;;;;;1.80;0.23;;;;;;;;;;5051053;28;20558;-66
2022/02/05 11:56:20;;;;;;;0.20;0.20;;;;;;;;;;5050715;28;20211;-65
2022/02/05 11:58:58;;;;;;;0.40;0.40;;;;;;;;;;5051540;28;20207;-65
2022/02/05 12:01:35;;;;;;;0.83;0.77;;;;;;;;;;5051400;28;20292;-66
2022/02/05 12:04:11;;;;;;;0.67;0.63;;;;;;;;;;5049329;28;20665;-65
2022/02/05 12:06:48;;;;;;;2.77;0.50;;;;;;;;;;5052019;28;20679;-66
2022/02/05 12:09:30;;;;;;;26.67;1.60;;;;;;;;;;5050284;28;20209;-64
2022/02/05 12:11:58;;;;;;;0.70;0.70;;;;;;;;;;5043413;28;20238;-66
2022/02/05 12:14:28;;;;;;;0.00;0.00;;;;;;;;;;5050464;28;20683;-67
2022/02/05 12:17:07;;;;;;;0.97;0.47;;;;;;;;;;5051160;28;20524;-66
2022/02/05 12:19:36;;;;;;;1.10;0.60;;;;;;;;;;5031970;28;20291;-66
2022/02/05 12:22:12;;;;;;;1.50;0.63;;;;;;;;;;5050933;28;20242;-66
2022/02/05 12:25:03;;;;;;;7.40;0.63;;;;;;;;;;5051960;28;20230;-68
2022/02/05 12:27:33;;;;;;;0.00;0.00;;;;;;;;;;5051420;28;20673;-65
2022/02/05 12:30:18;;;;;;;4.70;1.93;;;;;;;;;;5051805;28;20257;-66
2022/02/05 12:32:51;;;;;;;3.40;1.10;;;;;;;;;;5050315;28;20717;-66
2022/02/05 12:35:18;;;;;;;3.73;0.30;;;;;;;;;;5050246;28;20209;-66
2022/02/05 12:37:46;;;;;;;1.03;0.63;;;;;;;;;;5051196;28;20199;-67
2022/02/05 12:40:13;;;;;;;0.17;0.10;;;;;;;;;;5051506;28;20191;-67
2022/02/05 12:42:43;;;;;;;0.30;0.30;;;;;;;;;;5051476;28;20199;-66
2022/02/05 12:45:11;;;;;;;0.23;0.20;;;;;;;;;;5050642;28;20201;-66
2022/02/05 12:47:43;;;;;;;0.20;0.20;;;;;;;;;;5050727;28;20253;-66
2022/02/05 12:50:14;;;;;;;1.07;0.40;;;;;;;;;;5050038;28;20601;-66
2022/02/05 12:52:48;;;;;;;5.20;1.53;;;;;;;;;;5051038;28;20574;-68
2022/02/05 12:55:24;;;;;;;3.00;1.30;;;;;;;;;;5051055;28;20254;-66
2022/02/05 12:58:00;;;;;;;4.27;0.57;;;;;;;;;;5050076;28;20679;-65
2022/02/05 13:00:27;;;;;;;0.30;0.10;;;;;;;;;;5046971;28;20223;-65
2022/02/05 13:02:54;;;;;;;0.40;0.40;;;;;;;;;;5038325;28;20203;-66
2022/02/05 13:05:33;;;;;;;1.50;0.93;;;;;;;;;;5047912;28;20203;-66
2022/02/05 13:08:01;;;;;;;0.40;0.40;;;;;;;;;;5041435;28;20203;-67
2022/02/05 13:10:41;;;;;;;0.27;0.27;;;;;;;;;;5049496;28;20210;-66
2022/02/05 13:13:09;;;;;;;5.20;0.83;;;;;;;;;;5049543;28;20314;-66
2022/02/05 13:15:39;;;;;;;1.97;1.07;;;;;;;;;;5031956;28;20207;-67
2022/02/05 13:18:17;;;;;;;1.60;0.63;;;;;;;;;;5031286;28;20302;-67
2022/02/05 13:26:19;;;;;;;1.03;0.43;;;;;;;;;;5020201;28;20271;-68
2022/02/05 13:28:54;;;;;;;1.67;0.87;;;;;;;;;;5040615;28;20191;-66
2022/02/05 13:34:15;;;;;;;0.57;0.30;;;;;;;;;;5045886;28;20226;-67
2022/02/05 13:36:53;;;;;;;3.77;0.30;;;;;;;;;;5050417;28;20215;-66
2022/02/05 13:39:31;;;;;;;0.10;0.10;;;;;;;;;;5050706;28;20195;-65
2022/02/05 13:42:03;;;;;;;0.30;0.10;;;;;;;;;;5050717;28;20200;-66
2022/02/05 13:44:42;;;;;;;0.20;0.10;;;;;;;;;;5049996;28;20200;-65
2022/02/05 13:47:11;;;;;;;0.87;0.87;;;;;;;;;;5050899;28;20202;-65
2022/02/05 13:49:39;;;;;;;2.23;0.27;;;;;;;;;;5054699;28;20693;-65
2022/02/05 13:52:12;;;;;;;1.30;1.20;;;;;;;;;;5051541;28;20310;-66
2022/02/05 13:54:41;;;;;;;3.70;0.20;;;;;;;;;;5052841;28;20199;-66
2022/02/05 13:57:09;;;;;;;8.57;0.60;;;;;;;;;;5054052;28;20587;-67
2022/02/05 13:59:36;;;;;;;0.50;0.40;;;;;;;;;;5051706;28;20726;-66
2022/02/05 14:02:14;;;;;;;3.20;0.70;;;;;;;;;;5053339;28;20234;-65
2022/02/05 14:04:42;;;;;;;0.77;0.40;;;;;;;;;;5050341;28;20191;-65
2022/02/05 14:07:10;;;;;;;0.83;0.50;;;;;;;;;;5053679;28;20215;-65
2022/02/05 14:09:39;;;;;;;1.77;0.60;;;;;;;;;;5051907;28;20208;-65
2022/02/05 14:12:16;;;;;;;0.23;0.23;;;;;;;;;;5051562;28;20227;-65
2022/02/05 14:14:44;;;;;;;1.70;0.87;;;;;;;;;;5050379;28;20196;-65
2022/02/05 14:17:18;;;;;;;0.20;0.20;;;;;;;;;;5055541;28;20647;-70
2022/02/05 14:19:47;;;;;;;0.47;0.23;;;;;;;;;;5070925;28;20223;-66
2022/02/05 14:22:22;;;;;;;0.97;0.30;;;;;;;;;;5050727;28;20291;-66
2022/02/05 14:28:06;;;;;;;0.20;0.20;;;;;;;;;;5071131;27;20568;-65
2022/02/05 14:30:37;;;;;;;1.50;0.40;;;;;;;;;;5064275;28;20264;-65
2022/02/05 14:33:07;;;;;;;0.20;0.13;;;;;;;;;;5069158;28;20571;-64
2022/02/05 14:36:01;;;;;;;0.50;0.47;;;;;;;;;;5068538;28;20206;-65
2022/02/05 14:41:14;;;;;;;7.63;1.33;;;;;;;;;;5067101;28;20201;-65
2022/02/05 14:43:43;;;;;;;0.00;0.00;;;;;;;;;;5067586;28;20199;-64
2022/02/05 14:46:10;;;;;;;0.00;0.00;;;;;;;;;;5068336;28;20202;-66
2022/02/05 14:48:37;;;;;;;0.33;0.20;;;;;;;;;;5067357;28;20565;-66
2022/02/05 14:51:07;;;;;;;1.27;0.20;;;;;;;;;;5064633;28;20191;-65
2022/02/05 14:53:35;;;;;;;1.70;1.60;;;;;;;;;;5067297;28;20214;-65
2022/02/05 14:56:02;;;;;;;0.17;0.17;;;;;;;;;;5068131;28;20227;-64
2022/02/05 14:58:29;;;;;;;0.10;0.10;;;;;;;;;;5068135;28;20629;-66
2022/02/05 15:00:59;;;;;;;0.00;0.00;;;;;;;;;;5067280;28;20217;-65
2022/02/05 15:03:26;;;;;;;1.90;1.17;;;;;;;;;;5059976;28;20199;-66
2022/02/05 15:05:54;;;;;;;0.37;0.20;;;;;;;;;;5058944;28;20226;-65
2022/02/05 15:08:22;;;;;;;1.00;0.40;;;;;;;;;;5068407;28;20203;-65
2022/02/05 15:10:50;;;;;;;0.13;0.13;;;;;;;;;;5056852;28;20198;-65
2022/02/05 15:13:17;;;;;;;0.77;0.30;;;;;;;;;;5050927;28;20250;-66
2022/02/05 15:15:51;;;;;;;0.10;0.10;;;;;;;;;;5058719;28;20722;-63
2022/02/05 15:18:20;;;;;;;0.37;0.37;;;;;;;;;;5064812;28;20210;-66
2022/02/05 15:20:47;;;;;;;0.43;0.43;;;;;;;;;;5066323;28;20294;-68
2022/02/05 15:23:15;;;;;;;0.00;0.00;;;;;;;;;;5065201;28;20196;-68
2022/02/05 15:25:42;;;;;;;0.77;0.47;;;;;;;;;;5062509;28;20230;-67
2022/02/05 15:28:09;;;;;;;0.67;0.47;;;;;;;;;;5066839;28;20537;-68
2022/02/05 15:30:37;;;;;;;1.07;0.27;;;;;;;;;;5057138;28;20216;-67
2022/02/05 15:33:04;;;;;;;0.37;0.37;;;;;;;;;;5064273;28;20199;-67
2022/02/05 15:35:35;;;;;;;3.50;0.93;;;;;;;;;;5047523;28;20281;-70
2022/02/05 15:38:09;;;;;;;5.87;0.57;;;;;;;;;;5059934;28;20290;-66
2022/02/05 15:43:41;;;;;;;0.10;0.10;;;;;;;;;;5045776;28;20289;-67
2022/02/05 15:46:11;;;;;;;1.20;0.67;;;;;;;;;;5049638;28;20210;-69
2022/02/05 15:48:39;;;;;;;0.73;0.07;;;;;;;;;;5054110;28;20286;-68
2022/02/05 15:51:08;;;;;;;0.43;0.40;;;;;;;;;;5048242;28;20195;-67
2022/02/05 15:53:40;;;;;;;0.17;0.17;;;;;;;;;;5040490;28;20215;-68
2022/02/05 15:56:11;;;;;;;1.23;0.70;;;;;;;;;;5048688;28;20232;-68
2022/02/05 15:58:47;;;;;;;0.20;0.20;;;;;;;;;;5043660;28;20255;-65
2022/02/05 16:01:15;;;;;;;0.20;0.20;;;;;;;;;;5053200;28;20260;-64
2022/02/05 16:03:43;;;;;;;1.03;0.33;;;;;;;;;;5046528;28;20302;-67
2022/02/05 16:06:11;;;;;;;0.20;0.20;;;;;;;;;;5052999;28;20258;-68
2022/02/05 16:08:39;;;;;;;0.30;0.30;;;;;;;;;;5051278;28;20199;-68
2022/02/05 16:11:06;;;;;;;0.00;0.00;;;;;;;;;;5052490;28;20208;-67
2022/02/05 16:13:33;;;;;;;1.40;0.33;;;;;;;;;;5049738;28;20200;-67
2022/02/05 16:16:01;;;;;;;0.30;0.23;;;;;;;;;;5037136;28;20238;-67
2022/02/05 16:18:28;;;;;;;7.43;0.40;;;;;;;;;;5062091;28;20629;-67
2022/02/05 16:20:56;;;;;;;1.97;0.13;;;;;;;;;;5047800;28;20206;-66
2022/02/05 16:23:25;;;;;;;14.70;1.00;;;;;;;;;;5042057;28;20196;-66
2022/02/05 16:25:52;;;;;;;5.40;0.63;;;;;;;;;;5045404;28;20239;-67
2022/02/05 16:28:20;;;;;;;1.00;0.77;;;;;;;;;;5048428;28;20207;-66
2022/02/05 16:30:52;;;;;;;0.20;0.03;;;;;;;;;;5041197;28;20711;-67
2022/02/05 16:33:21;;;;;;;0.73;0.63;;;;;;;;;;5037127;28;20215;-68
2022/02/05 16:35:56;;;;;;;0.60;0.30;;;;;;;;;;5029192;28;20341;-66
2022/02/05 16:38:30;;;;;;;0.10;0.10;;;;;;;;;;5035995;28;20285;-67
2022/02/05 16:40:59;;;;;;;2.10;0.40;;;;;;;;;;5028441;28;20789;-67
2022/02/05 16:43:26;;;;;;;3.03;0.70;;;;;;;;;;5028345;28;20218;-68
2022/02/05 16:45:54;;;;;;;1.03;0.53;;;;;;;;;;5028997;28;20205;-69
2022/02/05 16:48:21;;;;;;;0.40;0.30;;;;;;;;;;5027923;28;20608;-68
2022/02/05 16:50:48;;;;;;;5.03;0.13;;;;;;;;;;5027174;28;20297;-67
2022/02/05 16:53:16;;;;;;;0.70;0.70;;;;;;;;;;5038302;28;20207;-67
2022/02/05 16:55:45;;;;;;;2.20;0.83;;;;;;;;;;5027461;28;20199;-65
2022/02/05 16:58:12;;;;;;;5.07;0.47;;;;;;;;;;5027468;28;20220;-69
2022/02/05 17:00:40;;;;;;;0.00;0.00;;;;;;;;;;5024392;28;20630;-66
2022/02/05 17:03:07;;;;;;;2.17;0.50;;;;;;;;;;5020925;28;20200;-67
2022/02/05 17:05:40;;;;;;;2.63;0.93;;;;;;;;;;5021840;28;20199;-67
2022/02/05 17:08:09;;;;;;;0.23;0.17;;;;;;;;;;5024078;28;20208;-65
2022/02/05 17:10:36;;;;;;;0.10;0.10;;;;;;;;;;5027040;28;21647;-64
2022/02/05 17:13:06;;;;;;;5.30;1.50;;;;;;;;;;5020695;28;20978;-71
2022/02/05 17:15:34;;;;;;;0.97;0.87;;;;;;;;;;5021267;28;20198;-71
2022/02/05 17:18:08;;;;;;;0.03;0.03;;;;;;;;;;5021537;28;20227;-67
2022/02/05 17:20:41;;;;;;;0.00;0.00;;;;;;;;;;5025823;28;20198;-70
2022/02/05 17:23:09;;;;;;;0.30;0.30;;;;;;;;;;5026679;28;20199;-68
2022/02/05 17:25:37;;;;;;;0.10;0.10;;;;;;;;;;5041014;28;20204;-75
2022/02/05 17:28:09;;;;;;;0.30;0.30;;;;;;;;;;5037372;28;20219;-69
2022/02/05 17:30:37;;;;;;;1.83;1.70;;;;;;;;;;5022427;28;20211;-68
2022/02/05 17:33:07;;;;;;;3.93;0.57;;;;;;;;;;5038834;28;20196;-71
2022/02/05 17:35:39;;;;;;;0.73;0.47;;;;;;;;;;5040614;28;20230;-67
2022/02/05 17:38:06;;;;;;;1.13;0.50;;;;;;;;;;5039279;28;20277;-69
2022/02/05 17:40:34;;;;;;;0.20;0.10;;;;;;;;;;5042375;28;20204;-68
2022/02/05 17:43:01;;;;;;;3.30;0.67;;;;;;;;;;5040250;28;20199;-66
2022/02/05 17:45:30;;;;;;;1.50;1.30;;;;;;;;;;5040766;28;20322;-68
2022/02/05 17:47:57;;;;;;;7.33;0.40;;;;;;;;;;5040789;28;20564;-67
2022/02/05 17:50:25;;;;;;;4.83;0.27;;;;;;;;;;5042615;28;20196;-68
2022/02/05 17:52:52;;;;;;;1.13;0.50;;;;;;;;;;5042084;28;20203;-69
2022/02/05 17:55:19;;;;;;;5.30;0.93;;;;;;;;;;5040118;28;20203;-67
2022/02/05 17:57:52;;;;;;;0.57;0.53;;;;;;;;;;5042384;28;20227;-67
2022/02/05 18:00:21;;;;;;;0.00;0.00;;;;;;;;;;5041502;28;20207;-67
2022/02/05 18:02:50;;;;;;;0.00;0.00;;;;;;;;;;5042115;28;20655;-66
2022/02/05 18:05:23;;;;;;;0.20;0.20;;;;;;;;;;5039807;28;20557;-66
2022/02/05 18:08:09;;;;;;;0.40;0.40;;;;;;;;;;5041435;28;20226;-68
2022/02/05 18:10:44;;;;;;;0.17;0.13;;;;;;;;;;5038695;28;20223;-67
2022/02/05 18:13:25;;;;;;;0.60;0.40;;;;;;;;;;5041657;28;20234;-73
2022/02/05 18:15:52;;;;;;;3.60;1.13;;;;;;;;;;5042118;28;20199;-68
2022/02/05 18:18:21;;;;;;;0.40;0.40;;;;;;;;;;5039389;28;20700;-67
2022/02/05 18:20:49;;;;;;;1.50;0.97;;;;;;;;;;5039819;28;20199;-69
2022/02/05 18:23:16;;;;;;;0.00;0.00;;;;;;;;;;5041836;28;20688;-71
2022/02/05 18:25:44;;;;;;;0.10;0.10;;;;;;;;;;5040944;28;20191;-69
2022/02/05 18:28:13;;;;;;;4.37;0.50;;;;;;;;;;5042927;28;20215;-68
2022/02/05 18:30:40;;;;;;;0.60;0.60;;;;;;;;;;5041565;28;20200;-67
2022/02/05 18:33:08;;;;;;;2.67;2.43;;;;;;;;;;5041169;28;20200;-68
2022/02/05 18:35:37;;;;;;;20.70;0.50;;;;;;;;;;5039529;28;20207;-70
2022/02/05 18:38:06;;;;;;;2.83;0.53;;;;;;;;;;5041753;28;20238;-68
2022/02/05 18:40:34;;;;;;;0.10;0.10;;;;;;;;;;5039676;28;20215;-68
2022/02/05 18:43:01;;;;;;;1.00;0.90;;;;;;;;;;5041643;28;20246;-68
2022/02/05 18:45:30;;;;;;;0.57;0.57;;;;;;;;;;5035684;28;20226;-67
2022/02/05 18:47:57;;;;;;;0.07;0.07;;;;;;;;;;5042257;28;20620;-68
2022/02/05 18:50:25;;;;;;;0.10;0.10;;;;;;;;;;5039810;28;20195;-67
2022/02/05 18:52:54;;;;;;;0.47;0.33;;;;;;;;;;5041455;28;20247;-67
2022/02/05 18:55:21;;;;;;;0.30;0.30;;;;;;;;;;5036097;28;20693;-69
2022/02/05 18:57:49;;;;;;;0.33;0.13;;;;;;;;;;5040940;28;20233;-68
2022/02/05 19:00:25;;;;;;;2.50;1.13;;;;;;;;;;5041549;28;20195;-68
2022/02/05 19:03:09;;;;;;;4.80;0.93;;;;;;;;;;5041675;28;20290;-68
2022/02/05 19:11:16;;;;;;;0.20;0.10;;;;;;;;;;5039983;28;20277;-66
2022/02/05 19:14:07;;;;;;;0.60;0.57;;;;;;;;;;5040210;28;20265;-66
2022/02/05 19:19:22;;;;;;;0.77;0.50;;;;;;;;;;5039532;28;20896;-66
2022/02/05 19:21:50;;;;;;;0.10;0.10;;;;;;;;;;5041116;28;20196;-68
2022/02/05 19:24:19;;;;;;;0.50;0.40;;;;;;;;;;5039495;28;20208;-67
2022/02/05 19:26:46;;;;;;;2.60;1.00;;;;;;;;;;5043210;28;20320;-68
2022/02/05 19:29:13;;;;;;;4.97;1.53;;;;;;;;;;5039182;28;20210;-68
2022/02/05 19:31:41;;;;;;;10.10;1.20;;;;;;;;;;5037949;28;20239;-69
2022/02/05 19:34:08;;;;;;;2.43;1.80;;;;;;;;;;5038997;28;20202;-72
2022/02/05 19:36:36;;;;;;;3.03;0.40;;;;;;;;;;5042663;28;20214;-69
2022/02/05 19:39:06;;;;;;;3.77;0.60;;;;;;;;;;5042624;28;20718;-68
2022/02/05 19:41:36;;;;;;;0.47;0.47;;;;;;;;;;5037464;28;20557;-69
2022/02/05 19:44:08;;;;;;;3.20;0.83;;;;;;;;;;5037036;28;20245;-68
2022/02/05 19:46:46;;;;;;;4.87;0.97;;;;;;;;;;5038118;28;20208;-71
2022/02/05 19:49:14;;;;;;;3.37;1.00;;;;;;;;;;5036908;28;20207;-70
2022/02/05 19:51:41;;;;;;;4.17;0.67;;;;;;;;;;5034332;28;20201;-71
2022/02/05 19:54:10;;;;;;;2.93;0.87;;;;;;;;;;5037395;28;20192;-67
2022/02/05 19:56:39;;;;;;;0.50;0.30;;;;;;;;;;5039728;28;20203;-68
2022/02/05 19:59:06;;;;;;;1.10;0.73;;;;;;;;;;5040060;28;20223;-68
2022/02/05 20:01:34;;;;;;;1.80;0.90;;;;;;;;;;5040037;28;20204;-68
2022/02/05 20:04:04;;;;;;;0.43;0.43;;;;;;;;;;5037142;28;20196;-67
2022/02/05 20:06:39;;;;;;;0.53;0.53;;;;;;;;;;5042194;28;20214;-71
2022/02/05 20:09:06;;;;;;;0.30;0.30;;;;;;;;;;5043039;28;20191;-68
2022/02/05 20:11:34;;;;;;;1.40;0.73;;;;;;;;;;5043736;28;20294;-67
2022/02/05 20:14:06;;;;;;;2.90;0.87;;;;;;;;;;5042628;28;20203;-67
2022/02/05 20:16:34;;;;;;;1.37;0.67;;;;;;;;;;5040820;28;20330;-67
2022/02/05 20:19:01;;;;;;;1.40;0.97;;;;;;;;;;5040419;28;20574;-67
2022/02/05 20:21:31;;;;;;;0.50;0.50;;;;;;;;;;5039463;28;20653;-67
2022/02/05 20:24:01;;;;;;;2.90;1.23;;;;;;;;;;5035383;28;20561;-66
2022/02/05 20:26:30;;;;;;;1.97;1.10;;;;;;;;;;5036366;28;20235;-67
2022/02/05 20:28:58;;;;;;;0.00;0.00;;;;;;;;;;5040541;28;20199;-68
2022/02/05 20:31:29;;;;;;;4.83;1.17;;;;;;;;;;5035814;28;20245;-68
2022/02/05 20:33:56;;;;;;;0.50;0.50;;;;;;;;;;5039983;28;20208;-69
2022/02/05 20:36:24;;;;;;;9.13;1.30;;;;;;;;;;5037697;28;20206;-67
2022/02/05 20:38:51;;;;;;;6.47;2.97;;;;;;;;;;5036775;28;20227;-68
2022/02/05 20:41:19;;;;;;;1.03;1.00;;;;;;;;;;5038977;28;20746;-69
2022/02/05 20:43:46;;;;;;;1.90;1.07;;;;;;;;;;5039177;28;20675;-68
2022/02/05 20:46:14;;;;;;;1.80;0.60;;;;;;;;;;5036027;28;20440;-67
2022/02/05 20:48:43;;;;;;;2.93;1.33;;;;;;;;;;5036739;28;20672;-67
2022/02/05 20:51:12;;;;;;;1.23;0.60;;;;;;;;;;5038612;28;20658;-68
2022/02/05 20:53:46;;;;;;;4.13;1.70;;;;;;;;;;5036024;28;20684;-69
2022/02/05 20:56:14;;;;;;;1.70;0.90;;;;;;;;;;5038721;28;20218;-69
2022/02/05 20:58:42;;;;;;;1.23;0.60;;;;;;;;;;5036500;28;20227;-71
2022/02/05 21:01:10;;;;;;;2.37;1.30;;;;;;;;;;5035389;28;20309;-67
2022/02/05 21:03:38;;;;;;;1.73;0.73;;;;;;;;;;5039026;28;20300;-68
2022/02/05 21:06:07;;;;;;;1.47;0.77;;;;;;;;;;5033812;28;20199;-69
2022/02/05 21:08:34;;;;;;;3.43;1.10;;;;;;;;;;5040199;28;20210;-67
2022/02/05 21:11:02;;;;;;;0.77;0.50;;;;;;;;;;5038870;28;20298;-69
2022/02/05 21:13:29;;;;;;;1.07;0.70;;;;;;;;;;5036350;28;20210;-68